Terminal Aerodrome Forecast
Issued by NWS Jackson, MS

Home | Current Version | Previous Version | Text Only | Print | Product List | Glossary On
Versions: 1 2 3 4 5 6 7 8 9 10 11 12 13 14 15 16 17 18 19 20
000
FTUS44 KJAN 262326
TAFMEI
TAF
KMEI 262326Z 2700/2724 28008KT P6SM -SHRA SCT025 BKN050
     FM270100 32013G20KT P6SM -SHRA BKN015 OVC025
     FM270300 35011KT P6SM OVC015
     FM271200 33005KT P6SM BKN025
     FM271400 34008KT P6SM SCT250
     FM272000 34012G18KT P6SM SCT050=

USA.gov is the U.S. government's official web portal to all federal, state and local government web resources and services.